createdAt,value
2022-08-18T00:02:02.898Z,99.90
2022-08-18T00:04:36.568Z,99.90
2022-08-18T00:07:17.170Z,99.90
2022-08-18T00:09:46.408Z,99.90
2022-08-18T00:12:17.485Z,99.90
2022-08-18T00:14:47.587Z,99.90
2022-08-18T00:17:16.332Z,99.90
2022-08-18T00:19:47.357Z,99.90
2022-08-18T00:22:18.263Z,99.90
2022-08-18T00:24:49.054Z,99.90
2022-08-18T00:27:21.649Z,99.90
2022-08-18T00:29:53.140Z,99.90
2022-08-18T00:32:24.062Z,99.90
2022-08-18T00:34:52.652Z,99.90
2022-08-18T00:37:20.725Z,99.90
2022-08-18T00:39:48.597Z,99.90
2022-08-18T00:42:28.663Z,99.90
2022-08-18T00:45:04.766Z,99.90
2022-08-18T00:47:42.662Z,99.90
2022-08-18T00:50:14.496Z,99.90
2022-08-18T00:52:46.909Z,99.90
2022-08-18T00:55:15.356Z,99.90
2022-08-18T00:57:44.262Z,99.90
2022-08-18T01:00:15.321Z,99.90
2022-08-18T01:02:47.650Z,99.90
2022-08-18T01:05:20.789Z,99.90
2022-08-18T01:07:51.375Z,99.90
2022-08-18T01:10:21.351Z,99.90
2022-08-18T01:12:52.026Z,99.90
2022-08-18T01:15:28.136Z,99.90
2022-08-18T01:18:15.930Z,99.90
2022-08-18T01:21:16.357Z,99.90
2022-08-18T01:23:47.010Z,99.90
2022-08-18T01:26:15.182Z,99.90
2022-08-18T01:28:45.210Z,99.90
2022-08-18T01:31:29.292Z,99.90
2022-08-18T01:33:57.510Z,99.90
2022-08-18T01:36:25.289Z,99.90
2022-08-18T01:38:54.732Z,99.90
2022-08-18T01:41:30.282Z,99.90
2022-08-18T01:43:59.259Z,99.90
2022-08-18T01:46:27.377Z,99.90
2022-08-18T01:48:55.134Z,99.90
2022-08-18T01:51:39.440Z,99.90
2022-08-18T01:54:11.507Z,99.90
2022-08-18T01:56:40.788Z,99.90
2022-08-18T01:59:14.761Z,99.90
2022-08-18T02:01:50.318Z,99.90
2022-08-18T02:04:34.952Z,99.90
2022-08-18T02:07:06.482Z,99.90
2022-08-18T02:09:36.556Z,99.90
2022-08-18T02:12:07.260Z,99.90
2022-08-18T02:14:35.939Z,99.90
2022-08-18T02:17:05.975Z,99.90
2022-08-18T02:19:35.365Z,99.90
2022-08-18T02:22:03.759Z,99.90
2022-08-18T02:24:31.674Z,99.90
2022-08-18T02:27:00.783Z,99.90
2022-08-18T02:29:28.752Z,99.90
2022-08-18T02:31:56.670Z,99.90
2022-08-18T02:34:25.485Z,99.90
2022-08-18T02:36:53.565Z,99.90
2022-08-18T02:39:21.731Z,99.90
2022-08-18T02:41:49.483Z,99.90
2022-08-18T02:44:18.920Z,99.90
2022-08-18T02:46:47.047Z,99.90
2022-08-18T02:49:14.811Z,99.90
2022-08-18T02:51:46.243Z,99.90
2022-08-18T02:54:14.108Z,99.90
2022-08-18T02:56:42.569Z,99.90
2022-08-18T02:59:12.244Z,99.90
2022-08-18T03:01:43.594Z,99.90
2022-08-18T03:04:15.595Z,99.90
2022-08-18T03:06:44.199Z,99.90
2022-08-18T03:09:13.210Z,99.90
2022-08-18T03:11:41.135Z,99.90
2022-08-18T03:14:12.302Z,99.90
2022-08-18T03:16:53.397Z,99.90
2022-08-18T03:19:23.247Z,99.90
2022-08-18T03:21:52.807Z,99.90
2022-08-18T03:24:23.040Z,99.90
2022-08-18T03:26:53.020Z,99.90
2022-08-18T03:29:21.720Z,99.90
2022-08-18T03:31:51.275Z,99.90
2022-08-18T03:34:21.578Z,99.90
2022-08-18T03:36:50.906Z,99.90
2022-08-18T03:39:20.122Z,99.90
2022-08-18T03:41:58.259Z,99.90
2022-08-18T03:44:30.540Z,99.90
2022-08-18T03:47:01.014Z,99.90
2022-08-18T03:49:28.901Z,99.90
2022-08-18T03:52:00.090Z,99.90
2022-08-18T03:54:28.260Z,99.90
2022-08-18T03:56:56.287Z,99.90
2022-08-18T03:59:27.263Z,99.90
2022-08-18T04:01:56.228Z,99.90
2022-08-18T04:04:28.441Z,99.90
2022-08-18T04:06:59.057Z,99.90
2022-08-18T04:09:28.885Z,99.90
2022-08-18T04:11:58.101Z,99.90
2022-08-18T04:14:29.877Z,99.90
2022-08-18T04:16:58.522Z,99.90
2022-08-18T04:19:28.300Z,99.90
2022-08-18T04:21:57.838Z,99.90
2022-08-18T04:24:28.109Z,99.90
2022-08-18T04:26:58.286Z,99.90
2022-08-18T04:29:26.248Z,99.90
2022-08-18T04:31:54.098Z,99.90
2022-08-18T04:34:23.321Z,99.90
2022-08-18T04:36:54.454Z,99.90
2022-08-18T04:39:23.732Z,99.90
2022-08-18T04:41:51.821Z,99.90
2022-08-18T04:44:20.030Z,99.90
2022-08-18T04:46:51.759Z,99.90
2022-08-18T04:49:21.558Z,99.90
2022-08-18T04:52:37.753Z,99.90
2022-08-18T04:54:54.142Z,99.90
2022-08-18T04:57:22.964Z,99.90
2022-08-18T04:59:53.502Z,99.90
2022-08-18T05:02:22.967Z,99.90
2022-08-18T05:04:52.351Z,99.90
2022-08-18T05:07:23.668Z,99.90
2022-08-18T05:09:55.040Z,99.90
2022-08-18T05:12:26.141Z,99.90
2022-08-18T05:14:56.982Z,99.90
2022-08-18T05:17:30.052Z,99.90
2022-08-18T05:19:58.907Z,99.90
2022-08-18T05:22:30.593Z,99.90
2022-08-18T05:24:59.170Z,99.90
2022-08-18T05:27:31.492Z,99.90
2022-08-18T05:29:59.237Z,99.90
2022-08-18T05:32:48.198Z,99.90
2022-08-18T05:35:26.124Z,99.90
2022-08-18T05:38:20.861Z,99.90
2022-08-18T05:41:04.991Z,99.90
2022-08-18T05:43:32.905Z,99.90
2022-08-18T05:46:03.369Z,99.90
2022-08-18T05:48:31.094Z,99.90
2022-08-18T05:51:02.756Z,99.90
2022-08-18T05:53:46.153Z,99.90
2022-08-18T05:56:28.505Z,99.90
2022-08-18T05:58:57.517Z,99.90
2022-08-18T06:01:29.830Z,99.90
2022-08-18T06:04:06.767Z,99.90
2022-08-18T06:06:36.974Z,99.90
2022-08-18T06:09:13.054Z,99.90
2022-08-18T06:11:40.886Z,99.90
2022-08-18T06:14:08.729Z,99.90
2022-08-18T06:16:50.192Z,99.90
2022-08-18T06:19:29.428Z,99.90
2022-08-18T06:22:03.624Z,99.90
2022-08-18T06:24:39.162Z,99.90
2022-08-18T06:27:13.968Z,99.90
2022-08-18T06:29:54.491Z,99.90
2022-08-18T06:32:34.210Z,99.90
2022-08-18T06:35:12.360Z,99.90
2022-08-18T06:38:03.163Z,99.90
2022-08-18T06:40:32.280Z,99.90
2022-08-18T06:43:02.115Z,99.90
2022-08-18T06:45:39.959Z,99.90
2022-08-18T06:48:15.550Z,99.90
2022-08-18T06:50:51.162Z,99.90
2022-08-18T06:53:27.883Z,99.90
2022-08-18T06:55:57.445Z,99.90
2022-08-18T06:58:30.056Z,99.90
2022-08-18T07:01:02.509Z,99.90
2022-08-18T07:03:45.230Z,99.90
2022-08-18T07:06:27.574Z,99.90
2022-08-18T07:08:57.402Z,99.90
2022-08-18T07:11:31.067Z,99.90
2022-08-18T07:14:16.431Z,99.90
2022-08-18T07:16:58.186Z,99.90
2022-08-18T07:19:30.593Z,99.90
2022-08-18T07:22:03.823Z,99.90
2022-08-18T07:24:37.461Z,99.90
2022-08-18T07:27:09.249Z,99.90
2022-08-18T07:29:39.929Z,99.90
2022-08-18T07:32:20.847Z,99.90
2022-08-18T07:34:55.124Z,99.90
2022-08-18T07:37:28.992Z,99.90
2022-08-18T07:40:02.330Z,99.90
2022-08-18T07:43:00.763Z,99.90
2022-08-18T07:45:34.257Z,99.90
2022-08-18T07:48:34.856Z,99.90
2022-08-18T07:51:08.578Z,99.90
2022-08-18T07:53:54.767Z,99.90
2022-08-18T07:56:37.861Z,99.90
2022-08-18T07:59:17.254Z,99.90
2022-08-18T08:01:54.168Z,99.90
2022-08-18T08:04:31.448Z,99.90
2022-08-18T08:07:23.821Z,99.90
2022-08-18T08:10:00.969Z,99.90
2022-08-18T08:12:45.306Z,99.90
2022-08-18T08:15:26.514Z,99.90
2022-08-18T08:18:02.030Z,99.90
2022-08-18T08:20:38.110Z,99.90
2022-08-18T08:23:17.831Z,99.90
2022-08-18T08:26:01.858Z,99.90
2022-08-18T08:28:43.701Z,99.90
2022-08-18T08:31:36.272Z,99.90
2022-08-18T08:34:11.888Z,99.90
2022-08-18T08:36:41.981Z,98.90
2022-08-18T08:39:17.319Z,95.90
2022-08-18T08:41:51.196Z,93.50
2022-08-18T08:44:23.299Z,90.00
2022-08-18T08:46:57.444Z,78.20
2022-08-18T08:49:35.728Z,71.40
2022-08-18T08:52:10.890Z,68.50
2022-08-18T08:54:45.070Z,63.00
2022-08-18T08:57:15.269Z,60.70
2022-08-18T08:59:46.655Z,59.20
2022-08-18T09:02:50.858Z,57.60
2022-08-18T09:05:22.615Z,55.30
2022-08-18T09:08:23.224Z,52.90
2022-08-18T09:11:11.723Z,53.20
2022-08-18T09:14:00.593Z,53.20
2022-08-18T09:16:42.384Z,53.30
2022-08-18T09:19:40.927Z,53.60
2022-08-18T09:22:18.793Z,50.70
2022-08-18T09:24:51.108Z,51.20
2022-08-18T09:27:48.525Z,49.50
2022-08-18T09:30:47.522Z,50.10
2022-08-18T09:33:22.943Z,49.50
2022-08-18T09:36:18.459Z,46.00
2022-08-18T09:39:10.486Z,45.30
2022-08-18T09:41:46.105Z,48.50
2022-08-18T09:44:55.456Z,46.60
2022-08-18T09:47:58.654Z,44.60
2022-08-18T09:50:54.285Z,42.80
2022-08-18T09:54:08.479Z,42.90
2022-08-18T09:57:16.506Z,39.60
2022-08-18T10:00:24.415Z,39.30
2022-08-18T10:03:14.180Z,37.60
2022-08-18T10:05:59.436Z,37.00
2022-08-18T10:09:17.912Z,36.70
2022-08-18T10:12:29.635Z,35.80
2022-08-18T10:15:33.173Z,36.50
2022-08-18T10:18:22.593Z,35.90
2022-08-18T10:21:01.866Z,36.00
2022-08-18T10:23:58.448Z,37.10
2022-08-18T10:27:08.407Z,37.40
2022-08-18T10:30:06.217Z,37.90
2022-08-18T10:32:54.138Z,37.10
2022-08-18T10:36:07.557Z,38.30
2022-08-18T10:38:46.129Z,38.20
2022-08-18T10:41:31.013Z,39.10
2022-08-18T10:44:01.289Z,40.90
2022-08-18T10:46:42.338Z,41.10
2022-08-18T10:49:23.123Z,42.00
2022-08-18T10:52:14.814Z,44.70
2022-08-18T10:55:01.431Z,46.70
2022-08-18T10:57:40.195Z,48.10
2022-08-18T11:00:13.507Z,53.10
2022-08-18T11:03:02.429Z,53.10
2022-08-18T11:05:43.114Z,55.70
2022-08-18T11:08:18.569Z,53.50
2022-08-18T11:11:27.519Z,50.90
2022-08-18T11:13:49.254Z,52.40
2022-08-18T11:16:28.565Z,58.70
2022-08-18T11:19:05.181Z,56.90
2022-08-18T11:24:29.090Z,57.20
2022-08-18T11:26:58.959Z,59.70
2022-08-18T11:29:32.197Z,58.30
2022-08-18T11:32:06.262Z,64.30
2022-08-18T11:34:52.015Z,64.50
2022-08-18T11:37:26.984Z,58.40
2022-08-18T11:39:58.774Z,58.00
2022-08-18T11:42:33.213Z,55.40
2022-08-18T11:45:14.184Z,56.80
2022-08-18T11:48:01.412Z,55.80
2022-08-18T11:50:34.457Z,57.60
2022-08-18T11:53:18.881Z,55.30
2022-08-18T11:56:15.188Z,55.40
2022-08-18T11:58:50.435Z,54.90
2022-08-18T12:01:42.150Z,56.90
2022-08-18T12:04:16.655Z,55.80
2022-08-18T12:07:06.297Z,56.40
2022-08-18T12:10:16.501Z,54.70
2022-08-18T12:12:30.496Z,54.90
2022-08-18T12:15:09.063Z,52.40
2022-08-18T12:17:43.403Z,54.40
2022-08-18T12:20:21.191Z,54.90
2022-08-18T12:22:50.674Z,56.80
2022-08-18T12:25:24.818Z,59.40
2022-08-18T12:27:53.920Z,55.70
2022-08-18T12:30:21.971Z,54.00
2022-08-18T12:33:05.573Z,55.60
2022-08-18T12:35:38.434Z,56.40
2022-08-18T12:40:55.308Z,57.90
2022-08-18T12:43:23.071Z,60.70
2022-08-18T12:45:50.898Z,63.20
2022-08-18T12:51:07.388Z,60.00
2022-08-18T12:53:58.566Z,62.60
2022-08-18T12:56:31.015Z,62.80
2022-08-18T12:59:01.180Z,61.80
2022-08-18T13:01:32.901Z,59.50
2022-08-18T13:04:11.321Z,59.90
2022-08-18T13:06:58.875Z,61.20
2022-08-18T13:09:48.083Z,61.30
2022-08-18T13:12:19.601Z,60.00
2022-08-18T13:14:49.783Z,59.90
2022-08-18T13:17:32.803Z,58.80
2022-08-18T13:20:02.920Z,59.70
2022-08-18T13:22:32.859Z,57.90
2022-08-18T13:25:03.853Z,57.30
2022-08-18T13:27:35.286Z,58.40
2022-08-18T13:30:16.600Z,58.30
2022-08-18T13:33:00.365Z,65.30
2022-08-18T13:35:38.370Z,59.00
2022-08-18T13:38:20.727Z,59.30
2022-08-18T13:40:51.804Z,59.60
2022-08-18T13:43:23.457Z,61.60
2022-08-18T13:45:53.483Z,62.60
2022-08-18T13:48:24.351Z,66.40
2022-08-18T13:50:53.815Z,67.80
2022-08-18T13:53:24.671Z,64.50
2022-08-18T13:55:57.519Z,63.20
2022-08-18T13:58:27.063Z,65.60
2022-08-18T14:01:16.221Z,65.40
2022-08-18T14:03:47.930Z,66.00
2022-08-18T14:06:22.015Z,66.40
2022-08-18T14:08:51.746Z,66.90
2022-08-18T14:11:23.502Z,65.80
2022-08-18T14:13:53.858Z,65.00
2022-08-18T14:16:22.930Z,67.10
2022-08-18T14:19:12.197Z,68.10
2022-08-18T14:22:01.573Z,66.30
2022-08-18T14:24:48.984Z,68.80
2022-08-18T14:27:18.577Z,68.40
2022-08-18T14:29:49.785Z,65.20
2022-08-18T14:32:29.215Z,65.80
2022-08-18T14:35:00.797Z,62.80
2022-08-18T14:37:41.177Z,65.00
2022-08-18T14:40:12.467Z,68.00
2022-08-18T14:42:54.374Z,65.80
2022-08-18T14:45:31.587Z,70.50
2022-08-18T14:48:06.705Z,68.60
2022-08-18T14:50:40.093Z,65.70
2022-08-18T14:53:13.595Z,66.20
2022-08-18T14:55:43.180Z,62.90
2022-08-18T14:58:12.451Z,60.90
2022-08-18T15:00:49.714Z,61.70
2022-08-18T15:03:22.092Z,64.10
2022-08-18T15:06:00.109Z,62.10
2022-08-18T15:08:28.336Z,60.30
2022-08-18T15:10:57.343Z,64.20
2022-08-18T15:13:26.718Z,66.10
2022-08-18T15:15:55.849Z,63.50
2022-08-18T15:18:31.302Z,65.70
2022-08-18T15:21:19.512Z,63.30
2022-08-18T15:24:20.693Z,65.50
2022-08-18T15:26:51.487Z,65.40
2022-08-18T15:29:22.634Z,67.40
2022-08-18T15:31:59.859Z,65.00
2022-08-18T15:34:32.810Z,66.60
2022-08-18T15:37:14.387Z,63.90
2022-08-18T15:39:42.593Z,64.10
2022-08-18T15:42:13.521Z,64.20
2022-08-18T15:44:44.694Z,64.90
2022-08-18T15:47:12.620Z,64.50
2022-08-18T15:49:40.545Z,65.50
2022-08-18T15:52:11.928Z,64.80
2022-08-18T15:54:42.287Z,64.80
2022-08-18T15:57:23.593Z,65.70
2022-08-18T16:00:03.694Z,64.80
2022-08-18T16:02:31.776Z,65.40
2022-08-18T16:05:10.249Z,65.50
2022-08-18T16:07:45.200Z,66.40
2022-08-18T16:10:13.216Z,65.90
2022-08-18T16:12:46.297Z,65.90
2022-08-18T16:15:19.587Z,65.20
2022-08-18T16:17:51.696Z,65.80
2022-08-18T16:20:19.975Z,68.50
2022-08-18T16:22:48.586Z,67.50
2022-08-18T16:25:17.162Z,66.10
2022-08-18T16:27:45.525Z,67.50
2022-08-18T16:30:17.391Z,68.00
2022-08-18T16:32:45.580Z,68.70
2022-08-18T16:35:13.345Z,68.30
2022-08-18T16:37:41.433Z,69.60
2022-08-18T16:40:10.291Z,70.90
2022-08-18T16:42:38.241Z,69.10
2022-08-18T16:45:07.129Z,71.30
2022-08-18T16:47:39.044Z,70.60
2022-08-18T16:50:09.082Z,70.80
2022-08-18T16:52:37.289Z,71.60
2022-08-18T16:55:06.300Z,73.80
2022-08-18T16:57:54.019Z,75.20
2022-08-18T17:00:41.528Z,77.00
2022-08-18T17:03:28.685Z,79.70
2022-08-18T17:06:03.667Z,80.60
2022-08-18T17:08:34.173Z,83.00
2022-08-18T17:11:02.191Z,83.90
2022-08-18T17:13:31.401Z,86.10
2022-08-18T17:15:59.200Z,88.60
2022-08-18T17:18:29.546Z,91.10
2022-08-18T17:20:57.360Z,94.80
2022-08-18T17:23:27.436Z,99.30
2022-08-18T17:25:56.484Z,99.90
2022-08-18T17:28:30.627Z,99.90
2022-08-18T17:30:59.975Z,99.90
2022-08-18T17:33:32.499Z,99.90
2022-08-18T17:36:05.521Z,99.90
2022-08-18T17:38:40.725Z,99.90
2022-08-18T17:41:08.551Z,99.90
2022-08-18T17:46:23.648Z,99.90
2022-08-18T17:48:57.086Z,99.90
2022-08-18T17:51:35.258Z,99.90
2022-08-18T17:54:10.014Z,99.90
2022-08-18T17:56:43.576Z,99.90
2022-08-18T17:59:45.671Z,99.90
2022-08-18T18:02:28.498Z,99.90
2022-08-18T18:05:00.860Z,99.90
2022-08-18T18:07:32.780Z,99.90
2022-08-18T18:10:04.338Z,99.90
2022-08-18T18:12:34.619Z,99.90
2022-08-18T18:15:05.197Z,99.90
2022-08-18T18:17:37.916Z,99.90
2022-08-18T18:20:17.090Z,99.90
2022-08-18T18:22:45.782Z,99.90
2022-08-18T18:25:30.130Z,99.90
2022-08-18T18:28:02.805Z,99.90
2022-08-18T18:30:31.793Z,99.90
2022-08-18T18:33:03.017Z,99.90
2022-08-18T18:35:54.060Z,99.90
2022-08-18T18:38:28.029Z,99.90
2022-08-18T18:40:59.001Z,99.90
2022-08-18T18:43:29.777Z,99.90
2022-08-18T18:46:23.748Z,99.90
2022-08-18T18:49:09.684Z,99.90
2022-08-18T18:51:43.627Z,99.90
2022-08-18T18:54:27.130Z,99.90
2022-08-18T18:56:57.317Z,99.90
2022-08-18T18:59:35.785Z,99.90
2022-08-18T19:02:33.780Z,99.90
2022-08-18T19:05:17.719Z,99.90
2022-08-18T19:07:58.053Z,99.90
2022-08-18T19:10:34.730Z,99.90
2022-08-18T19:13:07.034Z,99.90
2022-08-18T19:15:38.441Z,99.90
2022-08-18T19:18:25.896Z,99.90
2022-08-18T19:22:05.034Z,99.90
2022-08-18T19:23:57.694Z,99.90
2022-08-18T19:26:29.469Z,99.90
2022-08-18T19:29:13.589Z,99.90
2022-08-18T19:31:46.975Z,99.90
2022-08-18T19:34:22.732Z,99.90
2022-08-18T19:37:00.775Z,99.90
2022-08-18T19:39:39.351Z,99.90
2022-08-18T19:42:12.468Z,99.90
2022-08-18T19:45:00.301Z,99.90
2022-08-18T19:47:40.784Z,99.90
2022-08-18T19:50:16.229Z,99.90
2022-08-18T19:53:01.073Z,99.90
2022-08-18T19:55:48.680Z,99.90
2022-08-18T19:58:53.347Z,99.90
2022-08-18T20:01:39.468Z,99.90
2022-08-18T20:04:19.746Z,99.90
2022-08-18T20:07:11.480Z,99.90
2022-08-18T20:10:09.472Z,99.90
2022-08-18T20:12:56.777Z,99.90
2022-08-18T20:15:28.447Z,99.90
2022-08-18T20:18:20.315Z,99.90
2022-08-18T20:21:39.898Z,99.90
2022-08-18T20:24:34.788Z,99.90
2022-08-18T20:27:22.484Z,99.90
2022-08-18T20:30:21.565Z,99.90
2022-08-18T20:33:11.123Z,99.90
2022-08-18T20:35:45.799Z,99.90
2022-08-18T20:38:29.770Z,99.90
2022-08-18T20:40:59.659Z,99.90
2022-08-18T20:43:30.833Z,99.90
2022-08-18T20:46:12.616Z,99.90
2022-08-18T20:49:07.072Z,99.90
2022-08-18T20:51:42.795Z,99.90
2022-08-18T20:54:32.863Z,99.90
2022-08-18T20:57:03.641Z,99.90
2022-08-18T20:59:34.578Z,99.90
2022-08-18T21:02:09.563Z,99.90
2022-08-18T21:04:46.379Z,99.90
2022-08-18T21:07:36.355Z,99.90
2022-08-18T21:10:13.446Z,99.90
2022-08-18T21:12:51.826Z,99.90
2022-08-18T21:15:23.095Z,99.90
2022-08-18T21:18:00.071Z,99.90
2022-08-18T21:20:29.044Z,99.90
2022-08-18T21:23:04.605Z,99.90
2022-08-18T21:25:33.599Z,99.90
2022-08-18T21:28:03.987Z,99.90
2022-08-18T21:30:32.739Z,99.90
2022-08-18T21:33:02.092Z,99.90
2022-08-18T21:35:32.065Z,99.90
2022-08-18T21:38:02.825Z,99.90
2022-08-18T21:40:43.443Z,99.90
2022-08-18T21:43:14.198Z,99.90
2022-08-18T21:45:47.621Z,99.90
2022-08-18T21:48:16.981Z,99.90
2022-08-18T21:50:51.609Z,99.90
2022-08-18T21:53:23.176Z,99.90
2022-08-18T21:55:52.322Z,99.90
2022-08-18T21:58:33.640Z,99.90
2022-08-18T22:01:21.604Z,99.90
2022-08-18T22:03:54.270Z,99.90
2022-08-18T22:06:29.118Z,99.90
2022-08-18T22:08:59.972Z,99.90
2022-08-18T22:12:00.754Z,99.90
2022-08-18T22:14:35.999Z,99.90
2022-08-18T22:17:28.440Z,99.90
2022-08-18T22:20:35.987Z,99.90
2022-08-18T22:23:24.856Z,99.90
2022-08-18T22:25:52.683Z,99.90
2022-08-18T22:28:24.423Z,99.90
2022-08-18T22:30:55.115Z,99.90
2022-08-18T22:33:23.141Z,99.90
2022-08-18T22:35:57.162Z,99.90
2022-08-18T22:38:30.139Z,99.90
2022-08-18T22:41:00.117Z,99.90
2022-08-18T22:43:28.449Z,99.90
2022-08-18T22:45:56.165Z,99.90
2022-08-18T22:48:23.903Z,99.90
2022-08-18T22:50:51.913Z,99.90
2022-08-18T22:53:21.020Z,99.90
2022-08-18T22:55:49.277Z,99.90
2022-08-18T22:58:22.141Z,99.90
2022-08-18T23:01:05.544Z,99.90
2022-08-18T23:03:35.083Z,99.90
2022-08-18T23:06:11.441Z,99.90
2022-08-18T23:08:54.572Z,99.90
2022-08-18T23:11:25.318Z,99.90
2022-08-18T23:13:53.962Z,99.90
2022-08-18T23:16:31.150Z,99.90
2022-08-18T23:19:01.839Z,99.90
2022-08-18T23:21:34.234Z,99.90
2022-08-18T23:24:05.800Z,99.90
2022-08-18T23:26:34.185Z,99.90
2022-08-18T23:29:03.317Z,99.90
2022-08-18T23:31:31.441Z,99.90
2022-08-18T23:34:00.588Z,99.90
2022-08-18T23:36:28.703Z,99.90
2022-08-18T23:38:56.508Z,99.90
2022-08-18T23:41:25.965Z,99.90
2022-08-18T23:43:53.849Z,99.90
2022-08-18T23:46:24.349Z,99.90
2022-08-18T23:48:53.353Z,99.90
2022-08-18T23:51:30.418Z,99.90
2022-08-18T23:54:00.669Z,99.90
2022-08-18T23:56:32.139Z,99.90
2022-08-18T23:59:00.715Z,99.90
